createdAt,value
2023-12-16T00:00:42.381Z,12.07
2023-12-16T00:03:09.101Z,11.99
2023-12-16T00:05:35.904Z,11.99
2023-12-16T00:08:02.660Z,11.91
2023-12-16T00:10:29.317Z,11.80
2023-12-16T00:12:56.406Z,11.70
2023-12-16T00:15:23.402Z,11.58
2023-12-16T00:17:50.136Z,11.55
2023-12-16T00:20:16.833Z,11.54
2023-12-16T00:22:43.645Z,11.46
2023-12-16T00:25:10.573Z,11.47
2023-12-16T00:27:37.854Z,11.68
2023-12-16T00:30:06.968Z,11.61
2023-12-16T00:32:33.676Z,11.75
2023-12-16T00:35:00.328Z,11.70
2023-12-16T00:37:26.977Z,11.74
2023-12-16T00:39:53.634Z,11.96
2023-12-16T00:42:20.223Z,11.97
2023-12-16T00:44:47.070Z,12.05
2023-12-16T00:47:13.676Z,12.01
2023-12-16T00:49:40.299Z,12.00
2023-12-16T00:52:06.968Z,11.78
2023-12-16T00:54:33.594Z,11.52
2023-12-16T00:57:00.207Z,11.73
2023-12-16T00:59:27.495Z,11.59
2023-12-16T01:01:54.586Z,11.54
2023-12-16T01:04:21.259Z,11.55
2023-12-16T01:06:47.975Z,11.85
2023-12-16T01:09:14.614Z,11.66
2023-12-16T01:11:42.151Z,11.53
2023-12-16T01:14:11.756Z,11.63
2023-12-16T01:16:38.424Z,11.70
2023-12-16T01:19:05.390Z,11.67
2023-12-16T01:21:32.741Z,11.73
2023-12-16T01:23:59.370Z,11.72
2023-12-16T01:26:26.062Z,11.70
2023-12-16T01:28:52.662Z,11.61
2023-12-16T01:31:20.210Z,11.59
2023-12-16T01:33:46.966Z,11.57
2023-12-16T01:36:13.620Z,11.56
2023-12-16T01:38:40.273Z,11.69
2023-12-16T01:41:06.966Z,11.70
2023-12-16T01:43:33.929Z,11.68
2023-12-16T01:46:06.058Z,11.73
2023-12-16T01:48:34.879Z,11.69
2023-12-16T01:51:02.777Z,11.61
2023-12-16T01:53:31.183Z,11.43
2023-12-16T01:55:58.613Z,11.51
2023-12-16T01:58:25.362Z,11.52
2023-12-16T02:00:55.613Z,11.65
2023-12-16T02:03:23.439Z,11.46
2023-12-16T02:05:50.172Z,11.43
2023-12-16T02:08:17.067Z,11.57
2023-12-16T02:10:44.737Z,11.47
2023-12-16T02:13:11.728Z,11.59
2023-12-16T02:15:38.510Z,11.55
2023-12-16T02:18:05.493Z,11.61
2023-12-16T02:20:32.241Z,11.63
2023-12-16T02:22:59.232Z,11.47
2023-12-16T02:25:26.056Z,11.36
2023-12-16T02:27:52.737Z,11.47
2023-12-16T02:30:22.011Z,11.47
2023-12-16T02:32:49.155Z,11.44
2023-12-16T02:35:15.921Z,11.35
2023-12-16T02:37:42.916Z,11.29
2023-12-16T02:40:10.262Z,11.35
2023-12-16T02:42:37.043Z,11.32
2023-12-16T02:45:03.994Z,11.29
2023-12-16T02:47:30.739Z,11.28
2023-12-16T02:49:57.655Z,11.11
2023-12-16T02:52:24.479Z,11.17
2023-12-16T02:54:51.251Z,11.08
2023-12-16T02:57:17.986Z,11.10
2023-12-16T02:59:44.698Z,11.11
2023-12-16T03:02:11.528Z,10.98
2023-12-16T03:04:38.332Z,11.02
2023-12-16T03:07:05.147Z,10.90
2023-12-16T03:09:31.996Z,11.00
2023-12-16T03:11:59.495Z,10.87
2023-12-16T03:14:26.147Z,10.82
2023-12-16T03:16:52.823Z,10.79
2023-12-16T03:19:19.481Z,10.64
2023-12-16T03:21:46.162Z,10.89
2023-12-16T03:24:15.953Z,10.86
2023-12-16T03:26:43.104Z,10.87
2023-12-16T03:29:09.764Z,10.76
2023-12-16T03:31:36.449Z,10.88
2023-12-16T03:34:03.677Z,10.88
2023-12-16T03:36:30.424Z,10.78
2023-12-16T03:38:57.220Z,10.83
2023-12-16T03:41:24.057Z,11.08
2023-12-16T03:43:51.706Z,10.94
2023-12-16T03:46:18.766Z,10.94
2023-12-16T03:48:45.520Z,10.90
2023-12-16T03:51:12.198Z,10.98
2023-12-16T03:53:38.920Z,10.98
2023-12-16T03:56:05.737Z,11.27
2023-12-16T03:58:32.432Z,11.32
2023-12-16T04:00:59.405Z,11.36
2023-12-16T04:03:26.156Z,11.32
2023-12-16T04:05:52.942Z,11.57
2023-12-16T04:08:19.641Z,11.59
2023-12-16T04:10:46.264Z,11.76
2023-12-16T04:13:13.116Z,11.85
2023-12-16T04:15:39.953Z,11.83
2023-12-16T04:18:06.791Z,11.80
2023-12-16T04:20:33.548Z,11.66
2023-12-16T04:23:00.192Z,11.98
2023-12-16T04:25:26.907Z,11.99
2023-12-16T04:27:53.741Z,11.84
2023-12-16T04:30:20.432Z,11.93
2023-12-16T04:32:47.117Z,11.83
2023-12-16T04:35:13.903Z,11.57
2023-12-16T04:37:40.937Z,11.71
2023-12-16T04:40:08.910Z,11.61
2023-12-16T04:42:35.518Z,11.68
2023-12-16T04:45:02.222Z,11.74
2023-12-16T04:47:28.830Z,11.66
2023-12-16T04:49:55.432Z,11.61
2023-12-16T04:52:22.149Z,11.42
2023-12-16T04:54:48.798Z,11.36
2023-12-16T04:57:15.562Z,11.30
2023-12-16T04:59:42.226Z,11.30
2023-12-16T05:02:08.920Z,11.24
2023-12-16T05:04:35.770Z,11.37
2023-12-16T05:07:02.587Z,11.26
2023-12-16T05:09:29.305Z,11.37
2023-12-16T05:11:56.031Z,11.31
2023-12-16T05:14:23.439Z,11.29
2023-12-16T05:16:50.016Z,11.16
2023-12-16T05:19:17.032Z,11.23
2023-12-16T05:21:43.852Z,11.24
2023-12-16T05:24:10.486Z,11.07
2023-12-16T05:26:37.091Z,11.17
2023-12-16T05:29:05.105Z,11.00
2023-12-16T05:31:31.754Z,10.88
2023-12-16T05:33:58.535Z,10.95
2023-12-16T05:36:25.198Z,10.96
2023-12-16T05:38:51.827Z,11.03
2023-12-16T05:41:18.529Z,11.04
2023-12-16T05:43:45.147Z,11.08
2023-12-16T05:46:11.927Z,11.17
2023-12-16T05:48:38.735Z,11.07
2023-12-16T05:51:06.919Z,11.02
2023-12-16T05:53:37.463Z,11.13
2023-12-16T05:56:07.862Z,11.19
2023-12-16T05:58:34.798Z,11.01
2023-12-16T06:01:02.199Z,11.01
2023-12-16T06:03:28.921Z,11.04
2023-12-16T06:05:55.913Z,11.25
2023-12-16T06:08:22.597Z,10.89
2023-12-16T06:10:49.210Z,10.94
2023-12-16T06:13:15.919Z,10.98
2023-12-16T06:15:42.664Z,11.15
2023-12-16T06:18:09.512Z,11.19
2023-12-16T06:20:36.230Z,11.07
2023-12-16T06:23:02.937Z,11.23
2023-12-16T06:25:29.601Z,11.26
2023-12-16T06:27:56.301Z,11.32
2023-12-16T06:30:22.944Z,11.09
2023-12-16T06:32:49.654Z,11.17
2023-12-16T06:35:16.323Z,11.27
2023-12-16T06:37:42.941Z,11.24
2023-12-16T06:40:10.209Z,11.18
2023-12-16T06:42:36.920Z,11.23
2023-12-16T06:45:04.042Z,11.09
2023-12-16T06:47:30.925Z,11.07
2023-12-16T06:49:57.707Z,10.97
2023-12-16T06:52:24.408Z,11.05
2023-12-16T06:54:51.080Z,11.24
2023-12-16T06:57:17.772Z,11.29
2023-12-16T06:59:44.416Z,11.01
2023-12-16T07:02:11.088Z,11.26
2023-12-16T07:04:37.758Z,10.98
2023-12-16T07:07:04.586Z,11.12
2023-12-16T07:09:31.208Z,10.99
2023-12-16T07:11:57.814Z,11.09
2023-12-16T07:14:24.644Z,11.09
2023-12-16T07:16:54.272Z,11.20
2023-12-16T07:19:22.532Z,11.21
2023-12-16T07:21:49.284Z,11.27
2023-12-16T07:24:15.910Z,10.96
2023-12-16T07:26:42.533Z,11.20
2023-12-16T07:29:09.404Z,11.31
2023-12-16T07:31:36.054Z,11.23
2023-12-16T07:34:02.899Z,11.23
2023-12-16T07:36:29.596Z,11.08
2023-12-16T07:38:59.221Z,11.15
2023-12-16T07:41:25.882Z,10.84
2023-12-16T07:43:52.512Z,11.10
2023-12-16T07:46:19.182Z,11.17
2023-12-16T07:48:46.149Z,11.19
2023-12-16T07:51:26.403Z,11.19
2023-12-16T07:53:56.002Z,11.31
2023-12-16T07:56:25.158Z,11.29
2023-12-16T07:58:52.424Z,11.18
2023-12-16T08:01:20.087Z,11.31
2023-12-16T08:03:47.932Z,11.32
2023-12-16T08:06:18.765Z,11.36
2023-12-16T08:08:46.462Z,11.11
2023-12-16T08:11:13.479Z,11.26
2023-12-16T08:13:40.123Z,11.36
2023-12-16T08:16:08.455Z,11.30
2023-12-16T08:18:36.469Z,11.06
2023-12-16T08:21:03.466Z,11.31
2023-12-16T08:23:30.137Z,11.27
2023-12-16T08:25:56.954Z,11.28
2023-12-16T08:28:25.128Z,11.16
2023-12-16T08:30:53.626Z,11.19
2023-12-16T08:33:20.749Z,11.18
2023-12-16T08:35:47.528Z,11.12
2023-12-16T08:38:14.220Z,11.22
2023-12-16T08:40:41.023Z,11.20
2023-12-16T08:43:07.674Z,11.29
2023-12-16T08:45:34.333Z,11.31
2023-12-16T08:48:01.132Z,11.27
2023-12-16T08:50:28.391Z,11.26
2023-12-16T08:52:55.055Z,11.52
2023-12-16T08:55:23.329Z,11.19
2023-12-16T08:57:50.099Z,11.47
2023-12-16T09:00:17.112Z,11.41
2023-12-16T09:02:43.723Z,11.43
2023-12-16T09:05:10.733Z,11.53
2023-12-16T09:07:37.812Z,11.53
2023-12-16T09:10:05.934Z,11.48
2023-12-16T09:12:32.589Z,11.34
2023-12-16T09:15:00.298Z,11.57
2023-12-16T09:17:26.990Z,11.48
2023-12-16T09:19:53.726Z,11.43
2023-12-16T09:22:20.880Z,11.39
2023-12-16T09:24:48.633Z,11.40
2023-12-16T09:27:15.328Z,11.36
2023-12-16T09:29:41.928Z,11.49
2023-12-16T09:32:08.603Z,11.32
2023-12-16T09:34:35.492Z,11.67
2023-12-16T09:37:02.281Z,11.48
2023-12-16T09:39:28.892Z,11.64
2023-12-16T09:41:57.535Z,11.67
2023-12-16T09:44:25.456Z,11.54
2023-12-16T09:46:52.666Z,11.51
2023-12-16T09:49:20.431Z,11.54
2023-12-16T09:51:47.205Z,11.66
2023-12-16T09:54:17.223Z,11.65
2023-12-16T09:56:46.959Z,11.54
2023-12-16T09:59:15.178Z,11.58
2023-12-16T10:01:42.116Z,11.62
2023-12-16T10:04:10.240Z,11.64
2023-12-16T10:06:36.921Z,11.69
2023-12-16T10:09:03.857Z,11.52
2023-12-16T10:11:30.618Z,11.70
2023-12-16T10:14:01.408Z,11.68
2023-12-16T10:16:28.584Z,11.59
2023-12-16T10:18:57.810Z,11.52
2023-12-16T10:21:30.297Z,11.72
2023-12-16T10:23:57.879Z,11.78
2023-12-16T10:26:24.664Z,11.74
2023-12-16T10:28:53.387Z,11.66
2023-12-16T10:31:20.405Z,11.62
2023-12-16T10:33:47.743Z,11.77
2023-12-16T10:36:15.728Z,11.94
2023-12-16T10:38:42.358Z,11.81
2023-12-16T10:41:10.116Z,11.65
2023-12-16T10:43:37.040Z,11.91
2023-12-16T10:46:05.447Z,11.86
2023-12-16T10:48:37.060Z,11.95
2023-12-16T10:51:06.650Z,11.89
2023-12-16T10:53:45.466Z,11.98
2023-12-16T10:56:18.485Z,11.91
2023-12-16T10:59:06.387Z,11.74
2023-12-16T11:01:42.676Z,11.65
2023-12-16T11:04:17.924Z,11.73
2023-12-16T11:06:50.075Z,11.58
2023-12-16T11:09:17.223Z,11.69
2023-12-16T11:11:44.754Z,11.66
2023-12-16T11:14:12.203Z,11.63
2023-12-16T11:16:59.063Z,11.68
2023-12-16T11:19:34.814Z,11.81
2023-12-16T11:22:01.696Z,11.76
2023-12-16T11:24:28.309Z,11.67
2023-12-16T11:26:55.372Z,11.83
2023-12-16T11:29:25.839Z,11.83
2023-12-16T11:31:59.232Z,11.77
2023-12-16T11:34:45.429Z,11.81
2023-12-16T11:37:13.293Z,11.68
2023-12-16T11:39:49.482Z,11.91
2023-12-16T11:42:44.853Z,11.82
2023-12-16T11:45:11.820Z,11.92
2023-12-16T11:47:39.228Z,11.95
2023-12-16T11:50:06.698Z,11.92
2023-12-16T11:52:33.663Z,11.77
2023-12-16T11:55:00.612Z,11.76
2023-12-16T11:57:29.188Z,11.83
2023-12-16T11:59:56.364Z,11.59
2023-12-16T12:02:23.229Z,11.81
2023-12-16T12:04:50.155Z,11.66
2023-12-16T12:07:18.001Z,11.78
2023-12-16T12:09:45.572Z,11.72
2023-12-16T12:12:12.726Z,11.56
2023-12-16T12:14:48.346Z,11.67
2023-12-16T12:17:15.677Z,11.85
2023-12-16T12:19:44.801Z,11.84
2023-12-16T12:22:11.903Z,11.58
2023-12-16T12:24:38.668Z,11.67
2023-12-16T12:27:05.477Z,11.55
2023-12-16T12:29:53.965Z,11.71
2023-12-16T12:32:20.787Z,11.99
2023-12-16T12:34:58.145Z,11.88
2023-12-16T12:37:25.013Z,11.76
2023-12-16T12:39:51.604Z,11.85
2023-12-16T12:42:18.238Z,11.68
2023-12-16T12:44:55.103Z,11.74
2023-12-16T12:47:31.506Z,11.95
2023-12-16T12:49:58.195Z,11.92
2023-12-16T12:53:17.148Z,11.96
2023-12-16T12:55:25.251Z,11.68
2023-12-16T12:57:53.014Z,11.88
2023-12-16T13:00:20.428Z,11.59
2023-12-16T13:02:47.162Z,11.69
2023-12-16T13:05:13.811Z,11.54
2023-12-16T13:07:40.635Z,11.76
2023-12-16T13:10:07.919Z,12.00
2023-12-16T13:12:34.593Z,11.95
2023-12-16T13:15:02.696Z,11.76
2023-12-16T13:17:29.520Z,11.91
2023-12-16T13:19:56.293Z,11.92
2023-12-16T13:22:22.913Z,11.68
2023-12-16T13:24:49.558Z,11.61
2023-12-16T13:27:16.277Z,11.77
2023-12-16T13:29:42.919Z,11.58
2023-12-16T13:32:09.570Z,11.69
2023-12-16T13:34:36.329Z,11.91
2023-12-16T13:37:03.093Z,11.74
2023-12-16T13:39:29.720Z,11.71
2023-12-16T13:41:56.385Z,11.86
2023-12-16T13:44:23.004Z,12.30
2023-12-16T13:46:49.613Z,11.92
2023-12-16T13:49:16.421Z,12.26
2023-12-16T13:51:43.169Z,12.19
2023-12-16T13:54:09.777Z,12.19
2023-12-16T13:56:38.049Z,12.26
2023-12-16T13:59:04.908Z,11.99
2023-12-16T14:01:31.520Z,12.34
2023-12-16T14:03:58.283Z,12.09
2023-12-16T14:06:25.319Z,12.27
2023-12-16T14:08:51.990Z,12.24
2023-12-16T14:11:18.642Z,12.25
2023-12-16T14:13:45.310Z,12.34
2023-12-16T14:16:11.963Z,12.23
2023-12-16T14:18:38.795Z,12.32
2023-12-16T14:21:05.707Z,12.49
2023-12-16T14:23:32.342Z,12.33
2023-12-16T14:25:58.960Z,11.95
2023-12-16T14:28:25.543Z,12.12
2023-12-16T14:30:52.144Z,12.26
2023-12-16T14:33:19.076Z,12.63
2023-12-16T14:35:45.864Z,12.59
2023-12-16T14:38:12.542Z,12.29
2023-12-16T14:40:40.886Z,12.09
2023-12-16T14:43:07.485Z,12.17
2023-12-16T14:45:34.264Z,11.86
2023-12-16T14:48:00.925Z,12.16
2023-12-16T14:50:27.627Z,11.82
2023-12-16T14:52:54.551Z,12.10
2023-12-16T14:55:21.136Z,11.78
2023-12-16T14:57:47.743Z,12.05
2023-12-16T15:00:15.309Z,12.25
2023-12-16T15:02:42.092Z,12.07
2023-12-16T15:05:09.172Z,11.88
2023-12-16T15:07:35.919Z,11.78
2023-12-16T15:10:02.621Z,11.99
2023-12-16T15:12:38.698Z,11.83
2023-12-16T15:15:06.432Z,12.02
2023-12-16T15:17:34.941Z,11.97
2023-12-16T15:20:01.726Z,11.51
2023-12-16T15:22:28.316Z,11.53
2023-12-16T15:24:55.027Z,11.76
2023-12-16T15:27:21.966Z,11.64
2023-12-16T15:29:48.636Z,11.43
2023-12-16T15:32:16.306Z,11.27
2023-12-16T15:34:43.480Z,11.49
2023-12-16T15:37:15.246Z,11.75
2023-12-16T15:39:45.756Z,11.83
2023-12-16T15:42:12.397Z,11.67
2023-12-16T15:44:39.082Z,11.74
2023-12-16T15:47:05.939Z,11.67
2023-12-16T15:49:32.663Z,11.68
2023-12-16T15:51:59.306Z,11.67
2023-12-16T15:54:26.119Z,11.80
2023-12-16T15:56:52.811Z,11.77
2023-12-16T15:59:19.467Z,11.73
2023-12-16T16:01:46.079Z,11.55
2023-12-16T16:04:12.683Z,11.66
2023-12-16T16:06:39.308Z,11.73
2023-12-16T16:09:06.541Z,11.80
2023-12-16T16:11:34.113Z,11.58
2023-12-16T16:14:00.821Z,11.74
2023-12-16T16:16:27.485Z,11.56
2023-12-16T16:18:54.400Z,11.62
2023-12-16T16:21:21.118Z,11.87
2023-12-16T16:23:47.785Z,11.70
2023-12-16T16:26:14.425Z,11.71
2023-12-16T16:28:41.031Z,11.87
2023-12-16T16:31:07.674Z,11.83
2023-12-16T16:33:34.811Z,11.85
2023-12-16T16:36:02.679Z,11.49
2023-12-16T16:38:30.321Z,11.35
2023-12-16T16:40:57.157Z,11.33
2023-12-16T16:43:23.822Z,11.43
2023-12-16T16:45:50.440Z,11.17
2023-12-16T16:48:17.351Z,10.94
2023-12-16T16:50:49.372Z,11.30
2023-12-16T16:53:17.587Z,11.18
2023-12-16T16:55:44.535Z,11.20
2023-12-16T16:58:12.170Z,11.01
2023-12-16T17:00:40.492Z,11.26
2023-12-16T17:03:07.527Z,11.57
2023-12-16T17:05:34.423Z,11.62
2023-12-16T17:08:02.976Z,11.44
2023-12-16T17:10:29.924Z,11.22
2023-12-16T17:12:57.175Z,11.25
2023-12-16T17:15:24.119Z,11.19
2023-12-16T17:17:50.951Z,11.06
2023-12-16T17:20:17.749Z,11.32
2023-12-16T17:22:44.398Z,11.13
2023-12-16T17:25:11.383Z,11.33
2023-12-16T17:27:38.653Z,11.19
2023-12-16T17:30:06.385Z,11.48
2023-12-16T17:32:33.264Z,11.51
2023-12-16T17:34:59.939Z,11.35
2023-12-16T17:37:26.920Z,11.37
2023-12-16T17:39:53.534Z,11.34
2023-12-16T17:42:20.239Z,11.55
2023-12-16T17:44:46.865Z,11.66
2023-12-16T17:47:13.550Z,11.59
2023-12-16T17:49:40.231Z,12.06
2023-12-16T17:52:06.937Z,12.07
2023-12-16T17:54:33.555Z,12.19
2023-12-16T17:57:00.232Z,12.00
2023-12-16T17:59:26.882Z,11.58
2023-12-16T18:01:53.506Z,11.55
2023-12-16T18:04:20.927Z,11.51
2023-12-16T18:06:52.793Z,11.58
2023-12-16T18:09:21.370Z,11.60
2023-12-16T18:11:49.243Z,11.49
2023-12-16T18:14:16.375Z,11.53
2023-12-16T18:16:43.075Z,11.43
2023-12-16T18:19:09.823Z,11.33
2023-12-16T18:21:36.595Z,11.14
2023-12-16T18:24:05.234Z,11.07
2023-12-16T18:26:31.848Z,11.20
2023-12-16T18:28:58.471Z,11.36
2023-12-16T18:31:25.116Z,11.29
2023-12-16T18:33:51.973Z,11.31
2023-12-16T18:36:18.876Z,11.31
2023-12-16T18:38:46.124Z,11.26
2023-12-16T18:41:12.977Z,11.37
2023-12-16T18:43:40.537Z,11.39
2023-12-16T18:46:07.539Z,11.27
2023-12-16T18:48:34.581Z,11.48
2023-12-16T18:51:01.442Z,11.50
2023-12-16T18:53:28.129Z,11.52
2023-12-16T18:55:54.949Z,11.45
2023-12-16T18:58:22.231Z,11.47
2023-12-16T19:00:50.153Z,11.45
2023-12-16T19:03:19.221Z,11.40
2023-12-16T19:05:46.831Z,11.44
2023-12-16T19:08:13.896Z,11.40
2023-12-16T19:10:40.497Z,11.48
2023-12-16T19:13:07.186Z,11.47
2023-12-16T19:15:33.890Z,11.45
2023-12-16T19:18:00.762Z,11.31
2023-12-16T19:20:27.640Z,11.33
2023-12-16T19:22:54.954Z,11.24
2023-12-16T19:25:21.588Z,11.38
2023-12-16T19:27:48.269Z,11.32
2023-12-16T19:30:15.110Z,11.18
2023-12-16T19:32:41.922Z,11.30
2023-12-16T19:35:09.230Z,11.36
2023-12-16T19:37:35.926Z,11.43
2023-12-16T19:40:04.073Z,11.34
2023-12-16T19:42:30.803Z,11.09
2023-12-16T19:44:57.471Z,11.18
2023-12-16T19:47:26.016Z,11.25
2023-12-16T19:49:53.949Z,11.21
2023-12-16T19:52:20.803Z,11.35
2023-12-16T19:54:47.516Z,11.45
2023-12-16T19:57:14.965Z,11.35
2023-12-16T19:59:44.281Z,11.27
2023-12-16T20:02:11.785Z,11.31
2023-12-16T20:04:38.733Z,11.27
2023-12-16T20:07:05.521Z,11.35
2023-12-16T20:09:32.125Z,11.44
2023-12-16T20:11:58.907Z,11.52
2023-12-16T20:14:25.917Z,11.48
2023-12-16T20:16:52.579Z,11.54
2023-12-16T20:19:19.339Z,11.56
2023-12-16T20:21:46.106Z,11.49
2023-12-16T20:24:12.859Z,11.59
2023-12-16T20:26:39.624Z,11.67
2023-12-16T20:29:06.301Z,11.67
2023-12-16T20:31:34.073Z,11.71
2023-12-16T20:34:01.022Z,11.58
2023-12-16T20:36:31.903Z,11.61
2023-12-16T20:39:17.672Z,11.69
2023-12-16T20:41:44.405Z,11.77
2023-12-16T20:44:12.004Z,11.83
2023-12-16T20:46:38.962Z,11.74
2023-12-16T20:49:05.800Z,11.81
2023-12-16T20:51:32.695Z,11.73
2023-12-16T20:53:59.430Z,11.75
2023-12-16T20:56:26.074Z,11.92
2023-12-16T20:58:52.977Z,11.92
2023-12-16T21:01:20.067Z,11.95
2023-12-16T21:03:46.745Z,11.84
2023-12-16T21:06:13.430Z,11.73
2023-12-16T21:08:40.252Z,11.68
2023-12-16T21:11:06.928Z,11.69
2023-12-16T21:13:33.568Z,11.60
2023-12-16T21:16:00.229Z,11.66
2023-12-16T21:18:27.119Z,11.72
2023-12-16T21:20:53.891Z,11.87
2023-12-16T21:23:20.728Z,11.88
2023-12-16T21:25:47.455Z,11.81
2023-12-16T21:28:15.050Z,11.69
2023-12-16T21:30:42.742Z,11.84
2023-12-16T21:33:09.644Z,11.92
2023-12-16T21:35:36.410Z,11.87
2023-12-16T21:38:03.367Z,11.82
2023-12-16T21:40:30.466Z,11.86
2023-12-16T21:42:58.124Z,11.85
2023-12-16T21:45:24.910Z,11.84
2023-12-16T21:47:51.845Z,11.81
2023-12-16T21:50:18.620Z,11.92
2023-12-16T21:52:45.260Z,11.75
2023-12-16T21:55:11.915Z,11.90
2023-12-16T21:57:38.760Z,11.67
2023-12-16T22:00:06.181Z,11.59
2023-12-16T22:02:32.897Z,11.71
2023-12-16T22:04:59.572Z,11.71
2023-12-16T22:07:26.429Z,11.71
2023-12-16T22:09:53.336Z,11.66
2023-12-16T22:12:20.152Z,11.71
2023-12-16T22:14:47.396Z,11.52
2023-12-16T22:17:14.061Z,11.67
2023-12-16T22:19:43.018Z,11.55
2023-12-16T22:22:09.718Z,11.68
2023-12-16T22:24:36.329Z,11.77
2023-12-16T22:27:03.140Z,11.82
2023-12-16T22:29:29.787Z,11.64
2023-12-16T22:31:56.436Z,11.85
2023-12-16T22:34:23.233Z,12.03
2023-12-16T22:36:49.863Z,12.00
2023-12-16T22:39:16.476Z,11.84
2023-12-16T22:41:43.194Z,12.00
2023-12-16T22:44:10.036Z,11.77
2023-12-16T22:46:36.731Z,11.91
2023-12-16T22:49:03.971Z,11.93
2023-12-16T22:51:31.291Z,11.62
2023-12-16T22:53:57.979Z,11.71
2023-12-16T22:56:24.623Z,11.86
2023-12-16T22:58:51.297Z,11.96
2023-12-16T23:01:17.965Z,11.93
2023-12-16T23:03:44.832Z,11.76
2023-12-16T23:06:11.692Z,11.91
2023-12-16T23:08:42.314Z,12.03
2023-12-16T23:11:09.558Z,11.89
2023-12-16T23:13:36.388Z,11.95
2023-12-16T23:16:03.079Z,11.96
2023-12-16T23:18:29.947Z,11.69
2023-12-16T23:20:56.930Z,11.90
2023-12-16T23:23:23.564Z,11.87
2023-12-16T23:25:50.216Z,11.87
2023-12-16T23:28:18.976Z,12.00
2023-12-16T23:30:46.153Z,12.12
2023-12-16T23:33:13.822Z,11.96
2023-12-16T23:35:40.557Z,11.98
2023-12-16T23:38:07.200Z,11.93
2023-12-16T23:40:33.785Z,11.81
2023-12-16T23:43:00.471Z,11.76
2023-12-16T23:45:27.091Z,11.83
2023-12-16T23:47:54.006Z,11.72
2023-12-16T23:50:20.727Z,11.70
2023-12-16T23:52:47.334Z,11.73
2023-12-16T23:55:14.054Z,11.94
2023-12-16T23:57:41.022Z,11.73
